Aviation Digital Data Service (ADDS)

Output produced by METARs form (0504 UTC 24 November 2014)
found at http://aviationweather.gov/adds/metars/
 
METAR text: KBFM 240453Z AUTO VRB06KT 10SM BKN009 BKN014 OVC019 21/20 A2978 RMK AO2 CIG 007V012 SLP085 T02110200
Conditions at: KBFM (MOBILE/BROOKLEY , AL, US) observed 0453 UTC 24 November 2014
Temperature: 21.1°C (70°F)
Dewpoint: 20.0°C (68°F) [RH = 93%]
Pressure (altimeter): 29.78 inches Hg (1008.5 mb)
[Sea-level pressure: 1008.5 mb]
Winds: variable direction winds at 7 MPH (6 knots; 3.1 m/s)
Visibility: 10 or more miles (16+ km)
Ceiling: 900 feet AGL
Clouds: broken clouds at 900 feet AGL
broken clouds at 1400 feet AGL
overcast cloud deck at 1900 feet AGL
Weather: automated observation with no human augmentation;
there may or may not be significant weather present at this time